sensor_id;sensor_type;location;lat;lon;timestamp;temperature;humidity
15113;DHT22;7657;50.140;7.076;2023-12-22T00:01:31;6.50;99.90
15113;DHT22;7657;50.140;7.076;2023-12-22T00:03:58;6.60;99.90
15113;DHT22;7657;50.140;7.076;2023-12-22T00:06:25;6.60;99.90
15113;DHT22;7657;50.140;7.076;2023-12-22T00:08:52;6.60;99.90
15113;DHT22;7657;50.140;7.076;2023-12-22T00:11:20;6.60;99.90
15113;DHT22;7657;50.140;7.076;2023-12-22T00:13:47;6.60;99.90
15113;DHT22;7657;50.140;7.076;2023-12-22T00:16:14;6.60;99.90
15113;DHT22;7657;50.140;7.076;2023-12-22T00:18:41;6.50;99.90
15113;DHT22;7657;50.140;7.076;2023-12-22T00:21:09;6.50;99.90
15113;DHT22;7657;50.140;7.076;2023-12-22T00:23:36;6.50;99.90
15113;DHT22;7657;50.140;7.076;2023-12-22T00:26:03;6.50;99.90
15113;DHT22;7657;50.140;7.076;2023-12-22T00:28:31;6.50;99.90
15113;DHT22;7657;50.140;7.076;2023-12-22T00:30:58;6.50;99.90
15113;DHT22;7657;50.140;7.076;2023-12-22T00:33:25;6.50;99.90
15113;DHT22;7657;50.140;7.076;2023-12-22T00:35:52;6.50;99.90
15113;DHT22;7657;50.140;7.076;2023-12-22T00:38:19;6.50;99.90
15113;DHT22;7657;50.140;7.076;2023-12-22T00:40:46;6.50;99.90
15113;DHT22;7657;50.140;7.076;2023-12-22T00:43:13;6.50;99.90
15113;DHT22;7657;50.140;7.076;2023-12-22T00:45:41;6.50;99.90
15113;DHT22;7657;50.140;7.076;2023-12-22T00:48:08;6.50;99.90
15113;DHT22;7657;50.140;7.076;2023-12-22T00:50:35;6.50;99.90
15113;DHT22;7657;50.140;7.076;2023-12-22T00:53:01;6.40;99.90
15113;DHT22;7657;50.140;7.076;2023-12-22T00:55:28;6.40;99.90
15113;DHT22;7657;50.140;7.076;2023-12-22T00:57:55;6.40;99.90
15113;DHT22;7657;50.140;7.076;2023-12-22T01:00:22;6.30;99.90
15113;DHT22;7657;50.140;7.076;2023-12-22T01:02:50;6.30;99.90
15113;DHT22;7657;50.140;7.076;2023-12-22T01:05:17;6.20;99.90
15113;DHT22;7657;50.140;7.076;2023-12-22T01:07:44;6.30;99.90
15113;DHT22;7657;50.140;7.076;2023-12-22T01:10:11;6.20;99.90
15113;DHT22;7657;50.140;7.076;2023-12-22T01:12:38;6.20;99.90
15113;DHT22;7657;50.140;7.076;2023-12-22T01:15:06;6.30;99.90
15113;DHT22;7657;50.140;7.076;2023-12-22T01:17:33;6.30;99.90
15113;DHT22;7657;50.140;7.076;2023-12-22T01:20:01;6.30;99.90
15113;DHT22;7657;50.140;7.076;2023-12-22T01:22:28;6.20;99.90
15113;DHT22;7657;50.140;7.076;2023-12-22T01:24:56;6.10;99.90
15113;DHT22;7657;50.140;7.076;2023-12-22T01:27:23;6.00;99.90
15113;DHT22;7657;50.140;7.076;2023-12-22T01:29:50;6.00;99.90
15113;DHT22;7657;50.140;7.076;2023-12-22T01:32:17;6.00;99.90
15113;DHT22;7657;50.140;7.076;2023-12-22T01:34:45;6.00;99.90
15113;DHT22;7657;50.140;7.076;2023-12-22T01:37:13;6.00;99.90
15113;DHT22;7657;50.140;7.076;2023-12-22T01:39:40;6.00;99.90
15113;DHT22;7657;50.140;7.076;2023-12-22T01:42:06;5.90;99.90
15113;DHT22;7657;50.140;7.076;2023-12-22T01:44:33;5.70;99.90
15113;DHT22;7657;50.140;7.076;2023-12-22T01:47:00;5.70;99.90
15113;DHT22;7657;50.140;7.076;2023-12-22T01:49:27;5.70;99.90
15113;DHT22;7657;50.140;7.076;2023-12-22T01:51:55;5.90;99.90
15113;DHT22;7657;50.140;7.076;2023-12-22T01:54:24;5.90;99.90
15113;DHT22;7657;50.140;7.076;2023-12-22T01:56:51;5.90;99.90
15113;DHT22;7657;50.140;7.076;2023-12-22T01:59:18;5.90;99.90
15113;DHT22;7657;50.140;7.076;2023-12-22T02:01:45;5.90;99.90
15113;DHT22;7657;50.140;7.076;2023-12-22T02:04:12;5.80;99.90
15113;DHT22;7657;50.140;7.076;2023-12-22T02:06:40;5.80;99.90
15113;DHT22;7657;50.140;7.076;2023-12-22T02:09:08;5.80;99.90
15113;DHT22;7657;50.140;7.076;2023-12-22T02:11:37;5.90;99.90
15113;DHT22;7657;50.140;7.076;2023-12-22T02:14:05;5.90;99.90
15113;DHT22;7657;50.140;7.076;2023-12-22T02:16:36;6.00;99.90
15113;DHT22;7657;50.140;7.076;2023-12-22T02:19:13;6.00;99.90
15113;DHT22;7657;50.140;7.076;2023-12-22T02:22:00;6.10;99.90
15113;DHT22;7657;50.140;7.076;2023-12-22T02:24:29;6.10;99.90
15113;DHT22;7657;50.140;7.076;2023-12-22T02:27:03;6.10;99.90
15113;DHT22;7657;50.140;7.076;2023-12-22T02:29:32;6.10;99.90
15113;DHT22;7657;50.140;7.076;2023-12-22T02:32:04;6.20;99.90
15113;DHT22;7657;50.140;7.076;2023-12-22T02:34:35;6.20;99.90
15113;DHT22;7657;50.140;7.076;2023-12-22T02:37:05;6.20;99.90
15113;DHT22;7657;50.140;7.076;2023-12-22T02:39:35;6.20;99.90
15113;DHT22;7657;50.140;7.076;2023-12-22T02:42:03;6.20;99.90
15113;DHT22;7657;50.140;7.076;2023-12-22T02:44:31;6.30;99.90
15113;DHT22;7657;50.140;7.076;2023-12-22T02:46:58;6.30;99.90
15113;DHT22;7657;50.140;7.076;2023-12-22T02:49:25;6.30;99.90
15113;DHT22;7657;50.140;7.076;2023-12-22T02:51:51;6.30;99.90
15113;DHT22;7657;50.140;7.076;2023-12-22T02:54:18;6.30;99.90
15113;DHT22;7657;50.140;7.076;2023-12-22T02:56:47;6.40;99.90
15113;DHT22;7657;50.140;7.076;2023-12-22T02:59:14;6.40;99.90
15113;DHT22;7657;50.140;7.076;2023-12-22T03:01:41;6.40;99.90
15113;DHT22;7657;50.140;7.076;2023-12-22T03:04:08;6.40;99.90
15113;DHT22;7657;50.140;7.076;2023-12-22T03:06:34;6.50;99.90
15113;DHT22;7657;50.140;7.076;2023-12-22T03:09:01;6.50;99.90
15113;DHT22;7657;50.140;7.076;2023-12-22T03:11:29;6.50;99.90
15113;DHT22;7657;50.140;7.076;2023-12-22T03:13:57;6.50;99.90
15113;DHT22;7657;50.140;7.076;2023-12-22T03:16:24;6.40;99.90
15113;DHT22;7657;50.140;7.076;2023-12-22T03:18:51;6.40;99.90
15113;DHT22;7657;50.140;7.076;2023-12-22T03:21:18;6.40;99.90
15113;DHT22;7657;50.140;7.076;2023-12-22T03:23:45;6.30;99.90
15113;DHT22;7657;50.140;7.076;2023-12-22T03:26:12;6.40;99.90
15113;DHT22;7657;50.140;7.076;2023-12-22T03:28:39;6.40;99.90
15113;DHT22;7657;50.140;7.076;2023-12-22T03:31:07;6.40;99.90
15113;DHT22;7657;50.140;7.076;2023-12-22T03:33:34;6.40;99.90
15113;DHT22;7657;50.140;7.076;2023-12-22T03:36:01;6.40;99.90
15113;DHT22;7657;50.140;7.076;2023-12-22T03:38:28;6.40;99.90
15113;DHT22;7657;50.140;7.076;2023-12-22T03:40:55;6.40;99.90
15113;DHT22;7657;50.140;7.076;2023-12-22T03:43:22;6.40;99.90
15113;DHT22;7657;50.140;7.076;2023-12-22T03:45:49;6.40;99.90
15113;DHT22;7657;50.140;7.076;2023-12-22T03:48:17;6.40;99.90
15113;DHT22;7657;50.140;7.076;2023-12-22T03:50:44;6.40;99.90
15113;DHT22;7657;50.140;7.076;2023-12-22T03:53:11;6.40;99.90
15113;DHT22;7657;50.140;7.076;2023-12-22T03:55:37;6.40;99.90
15113;DHT22;7657;50.140;7.076;2023-12-22T03:58:05;6.50;99.90
15113;DHT22;7657;50.140;7.076;2023-12-22T04:00:33;6.40;99.90
15113;DHT22;7657;50.140;7.076;2023-12-22T04:03:00;6.40;99.90
15113;DHT22;7657;50.140;7.076;2023-12-22T04:05:28;6.40;99.90
15113;DHT22;7657;50.140;7.076;2023-12-22T04:07:55;6.30;99.90
15113;DHT22;7657;50.140;7.076;2023-12-22T04:10:22;6.30;99.90
15113;DHT22;7657;50.140;7.076;2023-12-22T04:12:49;6.40;99.90
15113;DHT22;7657;50.140;7.076;2023-12-22T04:15:16;6.30;99.90
15113;DHT22;7657;50.140;7.076;2023-12-22T04:17:42;6.40;99.90
15113;DHT22;7657;50.140;7.076;2023-12-22T04:20:10;6.30;99.90
15113;DHT22;7657;50.140;7.076;2023-12-22T04:22:39;6.20;99.90
15113;DHT22;7657;50.140;7.076;2023-12-22T04:25:06;6.10;99.90
15113;DHT22;7657;50.140;7.076;2023-12-22T04:27:34;6.10;99.90
15113;DHT22;7657;50.140;7.076;2023-12-22T04:30:01;6.10;99.90
15113;DHT22;7657;50.140;7.076;2023-12-22T04:32:28;6.10;99.90
15113;DHT22;7657;50.140;7.076;2023-12-22T04:34:55;6.00;99.90
15113;DHT22;7657;50.140;7.076;2023-12-22T04:37:21;6.00;99.90
15113;DHT22;7657;50.140;7.076;2023-12-22T04:39:51;6.00;99.90
15113;DHT22;7657;50.140;7.076;2023-12-22T04:42:18;6.00;99.90
15113;DHT22;7657;50.140;7.076;2023-12-22T04:44:45;5.90;99.90
15113;DHT22;7657;50.140;7.076;2023-12-22T04:47:12;5.90;99.90
15113;DHT22;7657;50.140;7.076;2023-12-22T04:49:39;5.90;99.90
15113;DHT22;7657;50.140;7.076;2023-12-22T04:52:06;5.90;99.90
15113;DHT22;7657;50.140;7.076;2023-12-22T04:54:32;5.80;99.90
15113;DHT22;7657;50.140;7.076;2023-12-22T04:57:01;5.80;99.90
15113;DHT22;7657;50.140;7.076;2023-12-22T04:59:28;5.90;99.90
15113;DHT22;7657;50.140;7.076;2023-12-22T05:01:55;5.90;99.90
15113;DHT22;7657;50.140;7.076;2023-12-22T05:04:21;5.90;99.90
15113;DHT22;7657;50.140;7.076;2023-12-22T05:06:48;5.90;99.90
15113;DHT22;7657;50.140;7.076;2023-12-22T05:09:16;6.00;99.90
15113;DHT22;7657;50.140;7.076;2023-12-22T05:11:43;6.00;99.90
15113;DHT22;7657;50.140;7.076;2023-12-22T05:14:11;6.10;99.90
15113;DHT22;7657;50.140;7.076;2023-12-22T05:16:38;6.10;99.90
15113;DHT22;7657;50.140;7.076;2023-12-22T05:19:05;6.10;99.90
15113;DHT22;7657;50.140;7.076;2023-12-22T05:21:31;6.10;99.90
15113;DHT22;7657;50.140;7.076;2023-12-22T05:23:58;6.20;99.90
15113;DHT22;7657;50.140;7.076;2023-12-22T05:26:25;6.20;99.90
15113;DHT22;7657;50.140;7.076;2023-12-22T05:28:55;6.20;99.90
15113;DHT22;7657;50.140;7.076;2023-12-22T05:31:24;6.20;99.90
15113;DHT22;7657;50.140;7.076;2023-12-22T05:33:51;6.20;99.90
15113;DHT22;7657;50.140;7.076;2023-12-22T05:36:18;6.30;99.90
15113;DHT22;7657;50.140;7.076;2023-12-22T05:38:45;6.30;99.90
15113;DHT22;7657;50.140;7.076;2023-12-22T05:41:13;6.30;99.90
15113;DHT22;7657;50.140;7.076;2023-12-22T05:43:40;6.30;99.90
15113;DHT22;7657;50.140;7.076;2023-12-22T05:46:08;6.30;99.90
15113;DHT22;7657;50.140;7.076;2023-12-22T05:48:36;6.30;99.90
15113;DHT22;7657;50.140;7.076;2023-12-22T05:51:03;6.30;99.90
15113;DHT22;7657;50.140;7.076;2023-12-22T05:53:33;6.30;99.90
15113;DHT22;7657;50.140;7.076;2023-12-22T05:56:00;6.30;99.90
15113;DHT22;7657;50.140;7.076;2023-12-22T05:58:26;6.30;99.90
15113;DHT22;7657;50.140;7.076;2023-12-22T06:00:53;6.30;99.90
15113;DHT22;7657;50.140;7.076;2023-12-22T06:03:20;6.40;99.90
15113;DHT22;7657;50.140;7.076;2023-12-22T06:05:49;6.40;99.90
15113;DHT22;7657;50.140;7.076;2023-12-22T06:08:15;6.30;99.90
15113;DHT22;7657;50.140;7.076;2023-12-22T06:10:43;6.40;99.90
15113;DHT22;7657;50.140;7.076;2023-12-22T06:13:10;6.30;99.90
15113;DHT22;7657;50.140;7.076;2023-12-22T06:15:37;6.30;99.90
15113;DHT22;7657;50.140;7.076;2023-12-22T06:18:04;6.30;99.90
15113;DHT22;7657;50.140;7.076;2023-12-22T06:20:31;6.30;99.90
15113;DHT22;7657;50.140;7.076;2023-12-22T06:22:59;6.40;99.90
15113;DHT22;7657;50.140;7.076;2023-12-22T06:25:26;6.40;99.90
15113;DHT22;7657;50.140;7.076;2023-12-22T06:27:53;6.30;99.90
15113;DHT22;7657;50.140;7.076;2023-12-22T06:30:20;6.30;99.90
15113;DHT22;7657;50.140;7.076;2023-12-22T06:32:46;6.30;99.90
15113;DHT22;7657;50.140;7.076;2023-12-22T06:35:13;6.40;99.90
15113;DHT22;7657;50.140;7.076;2023-12-22T06:37:40;6.40;99.90
15113;DHT22;7657;50.140;7.076;2023-12-22T06:40:10;6.30;99.90
15113;DHT22;7657;50.140;7.076;2023-12-22T06:42:37;6.30;99.90
15113;DHT22;7657;50.140;7.076;2023-12-22T06:45:04;6.30;99.90
15113;DHT22;7657;50.140;7.076;2023-12-22T06:47:31;6.30;99.90
15113;DHT22;7657;50.140;7.076;2023-12-22T06:49:59;6.30;99.90
15113;DHT22;7657;50.140;7.076;2023-12-22T06:52:26;6.30;99.90
15113;DHT22;7657;50.140;7.076;2023-12-22T06:54:52;6.30;99.90
15113;DHT22;7657;50.140;7.076;2023-12-22T06:57:21;6.30;99.90
15113;DHT22;7657;50.140;7.076;2023-12-22T06:59:47;6.30;99.90
15113;DHT22;7657;50.140;7.076;2023-12-22T07:02:15;6.30;99.90
15113;DHT22;7657;50.140;7.076;2023-12-22T07:07:33;6.30;99.90
15113;DHT22;7657;50.140;7.076;2023-12-22T07:10:00;6.20;99.90
15113;DHT22;7657;50.140;7.076;2023-12-22T07:12:28;6.20;99.90
15113;DHT22;7657;50.140;7.076;2023-12-22T07:14:55;6.20;99.90
15113;DHT22;7657;50.140;7.076;2023-12-22T07:17:22;6.10;99.90
15113;DHT22;7657;50.140;7.076;2023-12-22T07:19:49;6.10;99.90
15113;DHT22;7657;50.140;7.076;2023-12-22T07:22:17;6.20;99.90
15113;DHT22;7657;50.140;7.076;2023-12-22T07:24:44;6.20;99.90
15113;DHT22;7657;50.140;7.076;2023-12-22T07:27:11;6.10;99.90
15113;DHT22;7657;50.140;7.076;2023-12-22T07:29:40;6.10;99.90
15113;DHT22;7657;50.140;7.076;2023-12-22T07:32:06;6.10;99.90
15113;DHT22;7657;50.140;7.076;2023-12-22T07:34:33;6.10;99.90
15113;DHT22;7657;50.140;7.076;2023-12-22T07:37:01;6.20;99.90
15113;DHT22;7657;50.140;7.076;2023-12-22T07:39:28;6.20;99.90
15113;DHT22;7657;50.140;7.076;2023-12-22T07:41:54;6.20;99.90
15113;DHT22;7657;50.140;7.076;2023-12-22T07:44:21;6.10;99.90
15113;DHT22;7657;50.140;7.076;2023-12-22T07:46:57;6.20;99.90
15113;DHT22;7657;50.140;7.076;2023-12-22T07:49:25;6.20;99.90
15113;DHT22;7657;50.140;7.076;2023-12-22T07:51:53;6.20;99.90
15113;DHT22;7657;50.140;7.076;2023-12-22T07:54:20;6.20;99.90
15113;DHT22;7657;50.140;7.076;2023-12-22T07:56:47;6.20;99.90
15113;DHT22;7657;50.140;7.076;2023-12-22T07:59:13;6.20;99.90
15113;DHT22;7657;50.140;7.076;2023-12-22T08:01:40;6.30;99.90
15113;DHT22;7657;50.140;7.076;2023-12-22T08:04:10;6.30;99.90
15113;DHT22;7657;50.140;7.076;2023-12-22T08:06:37;6.30;99.90
15113;DHT22;7657;50.140;7.076;2023-12-22T08:09:03;6.30;99.90
15113;DHT22;7657;50.140;7.076;2023-12-22T08:11:31;6.30;99.90
15113;DHT22;7657;50.140;7.076;2023-12-22T08:13:58;6.40;99.90
15113;DHT22;7657;50.140;7.076;2023-12-22T08:16:25;6.40;99.90
15113;DHT22;7657;50.140;7.076;2023-12-22T08:18:52;6.40;99.90
15113;DHT22;7657;50.140;7.076;2023-12-22T08:21:20;6.40;99.90
15113;DHT22;7657;50.140;7.076;2023-12-22T08:23:47;6.50;99.90
15113;DHT22;7657;50.140;7.076;2023-12-22T08:26:14;6.40;99.90
15113;DHT22;7657;50.140;7.076;2023-12-22T08:28:42;6.40;99.90
15113;DHT22;7657;50.140;7.076;2023-12-22T08:31:09;6.40;99.90
15113;DHT22;7657;50.140;7.076;2023-12-22T08:33:37;6.50;99.90
15113;DHT22;7657;50.140;7.076;2023-12-22T08:36:06;6.60;99.90
15113;DHT22;7657;50.140;7.076;2023-12-22T08:38:34;6.50;99.90
15113;DHT22;7657;50.140;7.076;2023-12-22T08:41:03;6.50;99.90
15113;DHT22;7657;50.140;7.076;2023-12-22T08:43:29;6.50;99.90
15113;DHT22;7657;50.140;7.076;2023-12-22T08:45:56;6.60;99.90
15113;DHT22;7657;50.140;7.076;2023-12-22T08:48:23;6.50;99.90
15113;DHT22;7657;50.140;7.076;2023-12-22T08:50:50;6.60;99.90
15113;DHT22;7657;50.140;7.076;2023-12-22T08:53:17;6.60;99.90
15113;DHT22;7657;50.140;7.076;2023-12-22T08:55:45;6.50;99.90
15113;DHT22;7657;50.140;7.076;2023-12-22T08:58:12;6.50;99.90
15113;DHT22;7657;50.140;7.076;2023-12-22T09:00:39;6.60;99.90
15113;DHT22;7657;50.140;7.076;2023-12-22T09:03:07;6.60;99.90
15113;DHT22;7657;50.140;7.076;2023-12-22T09:05:34;6.70;99.90
15113;DHT22;7657;50.140;7.076;2023-12-22T09:08:00;6.70;99.90
15113;DHT22;7657;50.140;7.076;2023-12-22T09:10:27;6.70;99.90
15113;DHT22;7657;50.140;7.076;2023-12-22T09:12:55;6.80;99.90
15113;DHT22;7657;50.140;7.076;2023-12-22T09:15:22;6.80;99.90
15113;DHT22;7657;50.140;7.076;2023-12-22T09:17:49;6.80;99.90
15113;DHT22;7657;50.140;7.076;2023-12-22T09:20:17;6.90;99.90
15113;DHT22;7657;50.140;7.076;2023-12-22T09:22:44;6.80;99.90
15113;DHT22;7657;50.140;7.076;2023-12-22T09:25:11;6.80;99.90
15113;DHT22;7657;50.140;7.076;2023-12-22T09:27:37;6.80;99.90
15113;DHT22;7657;50.140;7.076;2023-12-22T09:30:07;6.80;99.90
15113;DHT22;7657;50.140;7.076;2023-12-22T09:32:34;6.90;99.90
15113;DHT22;7657;50.140;7.076;2023-12-22T09:35:01;6.90;99.90
15113;DHT22;7657;50.140;7.076;2023-12-22T09:37:28;6.90;99.90
15113;DHT22;7657;50.140;7.076;2023-12-22T09:39:55;6.90;99.90
15113;DHT22;7657;50.140;7.076;2023-12-22T09:42:24;6.90;99.90
15113;DHT22;7657;50.140;7.076;2023-12-22T09:44:53;6.90;99.90
15113;DHT22;7657;50.140;7.076;2023-12-22T09:47:23;6.90;99.90
15113;DHT22;7657;50.140;7.076;2023-12-22T09:49:52;7.00;99.90
15113;DHT22;7657;50.140;7.076;2023-12-22T09:52:19;7.00;99.90
15113;DHT22;7657;50.140;7.076;2023-12-22T09:54:47;7.00;99.90
15113;DHT22;7657;50.140;7.076;2023-12-22T09:57:15;7.00;99.90
15113;DHT22;7657;50.140;7.076;2023-12-22T09:59:43;7.00;99.90
15113;DHT22;7657;50.140;7.076;2023-12-22T10:02:10;7.00;99.90
15113;DHT22;7657;50.140;7.076;2023-12-22T10:04:38;7.10;99.90
15113;DHT22;7657;50.140;7.076;2023-12-22T10:07:06;7.10;99.90
15113;DHT22;7657;50.140;7.076;2023-12-22T10:09:35;7.20;99.90
15113;DHT22;7657;50.140;7.076;2023-12-22T10:12:03;7.10;99.90
15113;DHT22;7657;50.140;7.076;2023-12-22T10:14:31;7.20;99.90
15113;DHT22;7657;50.140;7.076;2023-12-22T10:17:01;7.20;99.90
15113;DHT22;7657;50.140;7.076;2023-12-22T10:19:28;7.20;99.90
15113;DHT22;7657;50.140;7.076;2023-12-22T10:21:56;7.20;99.90
15113;DHT22;7657;50.140;7.076;2023-12-22T10:24:39;7.30;99.90
15113;DHT22;7657;50.140;7.076;2023-12-22T10:27:08;7.20;99.90
15113;DHT22;7657;50.140;7.076;2023-12-22T10:29:35;7.20;99.90
15113;DHT22;7657;50.140;7.076;2023-12-22T10:32:03;7.20;99.90
15113;DHT22;7657;50.140;7.076;2023-12-22T10:34:30;7.20;99.90
15113;DHT22;7657;50.140;7.076;2023-12-22T10:37:00;7.20;99.90
15113;DHT22;7657;50.140;7.076;2023-12-22T10:39:27;7.20;99.90
15113;DHT22;7657;50.140;7.076;2023-12-22T10:41:55;7.30;99.90
15113;DHT22;7657;50.140;7.076;2023-12-22T10:44:24;7.30;99.90
15113;DHT22;7657;50.140;7.076;2023-12-22T10:46:51;7.30;99.90
15113;DHT22;7657;50.140;7.076;2023-12-22T10:49:18;7.30;99.90
15113;DHT22;7657;50.140;7.076;2023-12-22T10:51:45;7.40;99.90
15113;DHT22;7657;50.140;7.076;2023-12-22T10:54:13;7.50;99.90
15113;DHT22;7657;50.140;7.076;2023-12-22T10:56:40;7.40;99.90
15113;DHT22;7657;50.140;7.076;2023-12-22T10:59:08;7.30;99.90
15113;DHT22;7657;50.140;7.076;2023-12-22T11:01:36;7.40;99.90
15113;DHT22;7657;50.140;7.076;2023-12-22T11:04:06;7.40;99.90
15113;DHT22;7657;50.140;7.076;2023-12-22T11:06:35;7.40;99.90
15113;DHT22;7657;50.140;7.076;2023-12-22T11:09:06;7.40;99.90
15113;DHT22;7657;50.140;7.076;2023-12-22T11:11:35;7.50;99.90
15113;DHT22;7657;50.140;7.076;2023-12-22T11:14:02;7.40;99.90
15113;DHT22;7657;50.140;7.076;2023-12-22T11:16:31;7.40;99.90
15113;DHT22;7657;50.140;7.076;2023-12-22T11:18:59;7.50;99.90
15113;DHT22;7657;50.140;7.076;2023-12-22T11:21:27;7.50;99.90
15113;DHT22;7657;50.140;7.076;2023-12-22T11:23:54;7.60;99.90
15113;DHT22;7657;50.140;7.076;2023-12-22T11:26:23;7.50;99.90
15113;DHT22;7657;50.140;7.076;2023-12-22T11:28:52;7.60;99.90
15113;DHT22;7657;50.140;7.076;2023-12-22T11:31:19;7.60;99.90
15113;DHT22;7657;50.140;7.076;2023-12-22T11:33:49;7.60;99.90
15113;DHT22;7657;50.140;7.076;2023-12-22T11:36:17;7.60;99.90
15113;DHT22;7657;50.140;7.076;2023-12-22T11:38:45;7.60;99.90
15113;DHT22;7657;50.140;7.076;2023-12-22T11:41:16;7.60;99.90
15113;DHT22;7657;50.140;7.076;2023-12-22T11:43:44;7.60;99.90
15113;DHT22;7657;50.140;7.076;2023-12-22T11:46:16;7.70;99.90
15113;DHT22;7657;50.140;7.076;2023-12-22T11:48:47;7.70;99.90
15113;DHT22;7657;50.140;7.076;2023-12-22T11:51:15;7.70;99.90
15113;DHT22;7657;50.140;7.076;2023-12-22T11:53:43;7.70;99.90
15113;DHT22;7657;50.140;7.076;2023-12-22T11:56:11;7.70;99.90
15113;DHT22;7657;50.140;7.076;2023-12-22T11:58:39;7.80;99.90
15113;DHT22;7657;50.140;7.076;2023-12-22T12:01:07;7.80;99.90
15113;DHT22;7657;50.140;7.076;2023-12-22T12:03:41;7.80;99.90
15113;DHT22;7657;50.140;7.076;2023-12-22T12:06:14;7.80;99.90
15113;DHT22;7657;50.140;7.076;2023-12-22T12:08:42;7.80;99.90
15113;DHT22;7657;50.140;7.076;2023-12-22T12:11:09;7.70;99.90
15113;DHT22;7657;50.140;7.076;2023-12-22T12:13:41;7.70;99.90
15113;DHT22;7657;50.140;7.076;2023-12-22T12:16:08;7.70;99.90
15113;DHT22;7657;50.140;7.076;2023-12-22T12:18:35;7.70;99.90
15113;DHT22;7657;50.140;7.076;2023-12-22T12:21:06;7.70;99.90
15113;DHT22;7657;50.140;7.076;2023-12-22T12:23:33;7.70;99.90
15113;DHT22;7657;50.140;7.076;2023-12-22T12:26:00;7.70;99.90
15113;DHT22;7657;50.140;7.076;2023-12-22T12:28:29;7.70;99.90
15113;DHT22;7657;50.140;7.076;2023-12-22T12:31:00;7.80;99.90
15113;DHT22;7657;50.140;7.076;2023-12-22T12:33:27;7.80;99.90
15113;DHT22;7657;50.140;7.076;2023-12-22T12:35:56;7.90;99.90
15113;DHT22;7657;50.140;7.076;2023-12-22T12:38:36;7.90;99.90
15113;DHT22;7657;50.140;7.076;2023-12-22T12:41:09;7.90;99.90
15113;DHT22;7657;50.140;7.076;2023-12-22T12:43:41;7.90;99.90
15113;DHT22;7657;50.140;7.076;2023-12-22T12:46:09;8.00;99.90
15113;DHT22;7657;50.140;7.076;2023-12-22T12:48:36;8.00;99.90
15113;DHT22;7657;50.140;7.076;2023-12-22T12:51:04;8.00;99.90
15113;DHT22;7657;50.140;7.076;2023-12-22T12:53:33;8.00;99.90
15113;DHT22;7657;50.140;7.076;2023-12-22T12:56:00;8.00;99.90
15113;DHT22;7657;50.140;7.076;2023-12-22T12:58:28;8.10;99.90
15113;DHT22;7657;50.140;7.076;2023-12-22T13:01:04;8.10;99.90
15113;DHT22;7657;50.140;7.076;2023-12-22T13:03:31;8.10;99.90
15113;DHT22;7657;50.140;7.076;2023-12-22T13:06:06;8.00;99.90
15113;DHT22;7657;50.140;7.076;2023-12-22T13:08:34;8.00;99.90
15113;DHT22;7657;50.140;7.076;2023-12-22T13:11:03;8.00;99.90
15113;DHT22;7657;50.140;7.076;2023-12-22T13:13:30;8.00;99.90
15113;DHT22;7657;50.140;7.076;2023-12-22T13:16:06;8.00;99.90
15113;DHT22;7657;50.140;7.076;2023-12-22T13:18:33;8.00;99.90
15113;DHT22;7657;50.140;7.076;2023-12-22T13:21:00;8.00;99.90
15113;DHT22;7657;50.140;7.076;2023-12-22T13:23:28;8.00;99.90
15113;DHT22;7657;50.140;7.076;2023-12-22T13:25:57;8.00;99.90
15113;DHT22;7657;50.140;7.076;2023-12-22T13:28:27;8.10;99.90
15113;DHT22;7657;50.140;7.076;2023-12-22T13:30:54;8.10;99.90
15113;DHT22;7657;50.140;7.076;2023-12-22T13:33:21;8.10;99.90
15113;DHT22;7657;50.140;7.076;2023-12-22T13:35:50;8.10;99.90
15113;DHT22;7657;50.140;7.076;2023-12-22T13:38:18;8.10;99.90
15113;DHT22;7657;50.140;7.076;2023-12-22T13:40:45;8.10;99.90
15113;DHT22;7657;50.140;7.076;2023-12-22T13:43:14;8.10;99.90
15113;DHT22;7657;50.140;7.076;2023-12-22T13:45:41;8.10;99.90
15113;DHT22;7657;50.140;7.076;2023-12-22T13:48:08;8.10;99.90
15113;DHT22;7657;50.140;7.076;2023-12-22T13:50:35;8.10;99.90
15113;DHT22;7657;50.140;7.076;2023-12-22T13:53:09;8.00;99.90
15113;DHT22;7657;50.140;7.076;2023-12-22T13:55:36;8.00;99.90
15113;DHT22;7657;50.140;7.076;2023-12-22T13:58:04;8.10;99.90
15113;DHT22;7657;50.140;7.076;2023-12-22T14:00:33;8.10;99.90
15113;DHT22;7657;50.140;7.076;2023-12-22T14:03:01;8.00;99.90
15113;DHT22;7657;50.140;7.076;2023-12-22T14:05:28;8.00;99.90
15113;DHT22;7657;50.140;7.076;2023-12-22T14:07:55;7.90;99.90
15113;DHT22;7657;50.140;7.076;2023-12-22T14:10:22;8.00;99.90
15113;DHT22;7657;50.140;7.076;2023-12-22T14:12:49;7.90;99.90
15113;DHT22;7657;50.140;7.076;2023-12-22T14:15:15;7.90;99.90
15113;DHT22;7657;50.140;7.076;2023-12-22T14:17:44;7.90;99.90
15113;DHT22;7657;50.140;7.076;2023-12-22T14:20:11;7.90;99.90
15113;DHT22;7657;50.140;7.076;2023-12-22T14:22:38;7.90;99.90
15113;DHT22;7657;50.140;7.076;2023-12-22T14:25:06;7.90;99.90
15113;DHT22;7657;50.140;7.076;2023-12-22T14:27:33;7.90;99.90
15113;DHT22;7657;50.140;7.076;2023-12-22T14:29:58;8.00;99.90
15113;DHT22;7657;50.140;7.076;2023-12-22T14:32:25;8.00;99.90
15113;DHT22;7657;50.140;7.076;2023-12-22T14:34:54;8.00;99.90
15113;DHT22;7657;50.140;7.076;2023-12-22T14:37:20;8.00;99.90
15113;DHT22;7657;50.140;7.076;2023-12-22T14:39:48;8.10;99.90
15113;DHT22;7657;50.140;7.076;2023-12-22T14:42:15;8.00;99.90
15113;DHT22;7657;50.140;7.076;2023-12-22T14:44:41;8.10;99.90
15113;DHT22;7657;50.140;7.076;2023-12-22T14:47:09;8.10;99.90
15113;DHT22;7657;50.140;7.076;2023-12-22T14:49:36;8.10;99.90
15113;DHT22;7657;50.140;7.076;2023-12-22T14:52:04;8.10;99.90
15113;DHT22;7657;50.140;7.076;2023-12-22T14:54:31;8.10;99.90
15113;DHT22;7657;50.140;7.076;2023-12-22T14:56:58;8.10;99.90
15113;DHT22;7657;50.140;7.076;2023-12-22T14:59:26;8.10;99.90
15113;DHT22;7657;50.140;7.076;2023-12-22T15:01:53;8.10;99.90
15113;DHT22;7657;50.140;7.076;2023-12-22T15:04:19;8.10;99.90
15113;DHT22;7657;50.140;7.076;2023-12-22T15:06:46;8.10;99.90
15113;DHT22;7657;50.140;7.076;2023-12-22T15:09:15;8.10;99.90
15113;DHT22;7657;50.140;7.076;2023-12-22T15:11:43;8.10;99.90
15113;DHT22;7657;50.140;7.076;2023-12-22T15:14:09;8.00;99.90
15113;DHT22;7657;50.140;7.076;2023-12-22T15:16:41;7.90;99.90
15113;DHT22;7657;50.140;7.076;2023-12-22T15:19:10;7.90;99.90
15113;DHT22;7657;50.140;7.076;2023-12-22T15:21:38;7.90;99.90
15113;DHT22;7657;50.140;7.076;2023-12-22T15:24:05;8.00;99.90
15113;DHT22;7657;50.140;7.076;2023-12-22T15:26:34;8.00;99.90
15113;DHT22;7657;50.140;7.076;2023-12-22T15:29:01;8.00;99.90
15113;DHT22;7657;50.140;7.076;2023-12-22T15:31:28;8.00;99.90
15113;DHT22;7657;50.140;7.076;2023-12-22T15:33:55;8.00;99.90
15113;DHT22;7657;50.140;7.076;2023-12-22T15:36:22;8.00;99.90
15113;DHT22;7657;50.140;7.076;2023-12-22T15:38:49;8.00;99.90
15113;DHT22;7657;50.140;7.076;2023-12-22T15:41:16;8.00;99.90
15113;DHT22;7657;50.140;7.076;2023-12-22T15:43:45;8.00;99.90
15113;DHT22;7657;50.140;7.076;2023-12-22T15:46:12;7.90;99.90
15113;DHT22;7657;50.140;7.076;2023-12-22T15:48:39;7.90;99.90
15113;DHT22;7657;50.140;7.076;2023-12-22T15:51:06;8.00;99.90
15113;DHT22;7657;50.140;7.076;2023-12-22T15:53:33;7.90;99.90
15113;DHT22;7657;50.140;7.076;2023-12-22T15:56:04;8.00;99.90
15113;DHT22;7657;50.140;7.076;2023-12-22T15:58:31;8.00;99.90
15113;DHT22;7657;50.140;7.076;2023-12-22T16:01:00;7.90;99.90
15113;DHT22;7657;50.140;7.076;2023-12-22T16:03:27;7.90;99.90
15113;DHT22;7657;50.140;7.076;2023-12-22T16:05:54;8.00;99.90
15113;DHT22;7657;50.140;7.076;2023-12-22T16:08:21;8.00;99.90